Time;durP1;ratioP1;P1;durP2;ratioP2;P2;SDS_P1;SDS_P2;PMS_P1;PMS_P2;Temp;Humidity;BMP_temperature;BMP_pressure;BME280_temperature;BME280_humidity;BME280_pressure;Samples;Min_cycle;Max_cycle;Signal;HPM_P1;HPM_P2
2022/01/25 00:24:17;;;;;;;7.25;3.50;;;;;;;-9.53;60.08;95169.91;5004054;28;20036;-69
2022/01/25 00:24:32;;;;;;;8.50;3.83;;;;;;;-9.47;60.44;95183.97;5003767;28;20080;-69
2022/01/25 00:32:10;;;;;;;12.13;4.43;;;;;;;-9.44;60.15;95183.69;5003701;28;20125;-70
2022/01/25 00:34:36;;;;;;;13.13;4.55;;;;;;;-9.44;60.28;95188.00;5003640;28;20038;-69
2022/01/25 00:37:01;;;;;;;12.15;4.50;;;;;;;-9.45;60.38;95191.56;5003482;28;20026;-70
2022/01/25 00:39:27;;;;;;;8.27;3.78;;;;;;;-9.45;60.75;95192.38;5003682;28;20057;-70
2022/01/25 00:41:52;;;;;;;12.52;4.82;;;;;;;-9.48;61.14;95185.75;5002863;28;20336;-69
2022/01/25 00:44:18;;;;;;;10.38;4.50;;;;;;;-9.46;60.73;95184.78;4985940;28;20030;-70
2022/01/25 00:46:44;;;;;;;7.85;4.43;;;;;;;-9.54;61.94;95186.38;5003420;28;20026;-70
2022/01/25 00:49:11;;;;;;;11.85;5.10;;;;;;;-9.45;61.75;95181.25;5003089;28;20323;-70
2022/01/25 00:51:58;;;;;;;6.97;3.80;;;;;;;-9.46;61.70;95174.44;5006067;28;20048;-70
2022/01/25 00:56:49;;;;;;;9.88;3.65;;;;;;;-9.35;61.49;95171.59;5003163;28;20053;-69
2022/01/25 00:59:22;;;;;;;10.50;4.35;;;;;;;-9.37;61.07;95168.34;5003208;28;20219;-70
2022/01/25 01:01:49;;;;;;;9.55;4.45;;;;;;;-9.29;60.37;95171.75;5003073;28;20270;-71
2022/01/25 01:04:15;;;;;;;13.45;4.47;;;;;;;-9.29;60.60;95171.75;5002972;28;20030;-69
2022/01/25 01:06:43;;;;;;;12.93;4.88;;;;;;;-9.29;60.67;95169.19;5003081;28;20022;-71
2022/01/25 01:09:10;;;;;;;8.07;3.45;;;;;;;-9.30;60.64;95174.50;5003090;28;20305;-69
2022/01/25 01:11:43;;;;;;;11.40;4.38;;;;;;;-9.29;61.12;95176.91;5003010;28;20022;-69
2022/01/25 01:14:37;;;;;;;8.75;3.55;;;;;;;-9.29;61.08;95168.38;5005731;28;20050;-69
2022/01/25 01:28:51;;;;;;;10.57;4.35;;;;;;;-9.27;60.92;95163.84;5002868;28;20022;-70
2022/01/25 01:38:23;;;;;;;10.35;4.70;;;;;;;-9.24;61.95;95152.41;5003042;28;20021;-70
2022/01/25 01:43:35;;;;;;;10.32;4.57;;;;;;;-9.25;61.87;95150.78;5002836;28;20118;-69
2022/01/25 01:49:01;;;;;;;10.07;4.47;;;;;;;-9.27;62.45;95137.22;5002618;28;20439;-69
2022/01/25 01:51:35;;;;;;;9.95;4.10;;;;;;;-9.23;62.48;95149.66;5002881;28;20018;-69
2022/01/25 01:54:06;;;;;;;10.15;4.75;;;;;;;-9.26;61.83;95149.97;5004533;28;20035;-69
2022/01/25 01:56:31;;;;;;;7.93;3.15;;;;;;;-9.24;62.52;95142.06;5006397;28;20084;-69
2022/01/25 01:59:00;;;;;;;13.60;4.82;;;;;;;-9.22;62.07;95140.94;5006650;28;20034;-69
2022/01/25 02:01:28;;;;;;;8.60;4.25;;;;;;;-9.26;62.04;95146.59;5006377;28;20031;-69
2022/01/25 02:03:55;;;;;;;13.02;4.53;;;;;;;-9.28;62.61;95136.41;5006257;28;20033;-70
2022/01/25 02:06:21;;;;;;;9.30;4.82;;;;;;;-9.24;62.41;95135.13;5006233;28;20033;-70
2022/01/25 02:08:47;;;;;;;11.18;4.32;;;;;;;-9.34;62.49;95134.47;5006104;28;20030;-69
2022/01/25 02:11:13;;;;;;;13.70;5.20;;;;;;;-9.36;63.01;95128.66;5006258;28;20022;-69
2022/01/25 02:13:41;;;;;;;6.43;3.30;;;;;;;-9.28;62.61;95126.06;5006285;28;20026;-69
2022/01/25 02:16:14;;;;;;;15.43;5.22;;;;;;;-9.26;62.74;95124.13;5006068;28;20030;-69
2022/01/25 02:24:07;;;;;;;12.05;4.18;;;;;;;-9.34;63.02;95121.53;5006155;28;20090;-69
2022/01/25 02:26:33;;;;;;;9.05;4.57;;;;;;;-9.26;62.57;95121.56;5005749;28;20030;-69
2022/01/25 02:28:58;;;;;;;8.10;4.05;;;;;;;-9.33;62.96;95112.84;5006037;28;20018;-69
2022/01/25 02:31:24;;;;;;;9.68;4.35;;;;;;;-9.30;63.13;95097.03;5005743;28;20022;-69
2022/01/25 02:33:49;;;;;;;13.23;4.68;;;;;;;-9.35;62.85;95087.19;5005886;28;20105;-69
2022/01/25 02:36:26;;;;;;;11.98;4.55;;;;;;;-9.24;62.70;95098.97;5005652;28;20021;-70
2022/01/25 02:38:52;;;;;;;10.23;5.20;;;;;;;-9.25;62.48;95092.19;5005745;28;20025;-70
2022/01/25 02:41:18;;;;;;;13.25;4.63;;;;;;;-9.17;62.20;95094.78;5005652;28;20204;-70
2022/01/25 02:43:46;;;;;;;7.95;4.63;;;;;;;-9.19;62.11;95094.13;5005786;28;20022;-70
2022/01/25 02:48:51;;;;;;;11.18;4.43;;;;;;;-9.20;62.31;95084.75;5005254;28;20324;-70
2022/01/25 02:51:17;;;;;;;16.25;5.75;;;;;;;-9.21;62.23;95078.00;5005454;28;20023;-69
2022/01/25 02:53:42;;;;;;;16.25;6.05;;;;;;;-9.23;62.06;95079.94;5005505;28;20022;-71
2022/01/25 02:56:08;;;;;;;10.20;4.45;;;;;;;-9.24;61.98;95075.72;5005172;28;20283;-69
2022/01/25 02:58:33;;;;;;;9.70;3.63;;;;;;;-9.29;62.60;95078.78;5005380;28;20093;-69
2022/01/25 03:00:59;;;;;;;10.20;3.90;;;;;;;-9.23;62.88;95077.34;5005653;28;20026;-69
2022/01/25 03:03:24;;;;;;;12.48;5.32;;;;;;;-9.15;62.76;95079.13;5005367;28;20029;-69
2022/01/25 03:05:50;;;;;;;10.77;5.07;;;;;;;-9.12;62.64;95068.47;5004425;28;20312;-70
2022/01/25 03:08:16;;;;;;;9.65;4.15;;;;;;;-9.09;62.52;95066.38;5005115;28;20030;-69
2022/01/25 03:10:44;;;;;;;9.85;4.03;;;;;;;-9.12;62.64;95079.63;5005213;28;20029;-70
2022/01/25 03:13:16;;;;;;;9.95;4.75;;;;;;;-9.11;62.57;95078.66;5005103;28;20308;-70
2022/01/25 03:18:26;;;;;;;15.75;6.55;;;;;;;-9.15;62.08;95069.59;5005263;28;20236;-70
2022/01/25 03:21:00;;;;;;;12.77;6.63;;;;;;;-9.20;61.72;95077.00;5005334;28;20109;-70
2022/01/25 03:23:28;;;;;;;17.45;7.00;;;;;;;-9.25;61.72;95065.56;5005009;28;20026;-69
2022/01/25 03:25:53;;;;;;;12.60;5.72;;;;;;;-9.24;61.34;95074.91;5004825;28;20029;-70
2022/01/25 03:28:19;;;;;;;14.77;7.07;;;;;;;-9.24;61.80;95073.13;5004732;28;20049;-69
2022/01/25 03:30:46;;;;;;;14.05;6.78;;;;;;;-9.24;61.38;95070.56;5004819;28;20101;-69
2022/01/25 03:33:12;;;;;;;17.05;7.07;;;;;;;-9.26;61.99;95075.06;5004833;28;20169;-69
2022/01/25 03:35:38;;;;;;;16.55;5.60;;;;;;;-9.27;61.84;95072.69;5004553;28;20026;-70
2022/01/25 03:38:03;;;;;;;21.95;7.90;;;;;;;-9.30;62.18;95076.38;5004539;28;20018;-69
2022/01/25 03:40:29;;;;;;;15.65;6.82;;;;;;;-9.36;62.63;95070.09;5004935;28;20035;-70
2022/01/25 03:42:55;;;;;;;15.13;7.40;;;;;;;-9.37;62.32;95065.88;5004682;28;20037;-70
2022/01/25 03:45:28;;;;;;;14.77;7.43;;;;;;;-9.32;62.56;95065.38;5004358;28;20026;-70
2022/01/25 03:50:42;;;;;;;10.70;6.32;;;;;;;-9.46;62.39;95060.88;5004447;28;20026;-70
2022/01/25 03:53:09;;;;;;;17.50;7.15;;;;;;;-9.57;63.00;95062.00;4986902;28;20105;-70
2022/01/25 03:55:35;;;;;;;13.65;6.45;;;;;;;-9.54;62.94;95046.19;5004344;28;20046;-70
2022/01/25 03:58:01;;;;;;;13.00;5.95;;;;;;;-9.61;62.97;95064.06;5004353;28;20034;-71
2022/01/25 04:00:26;;;;;;;15.75;6.70;;;;;;;-9.65;63.55;95067.94;5004206;28;20046;-70
2022/01/25 04:03:01;;;;;;;13.07;5.15;;;;;;;-9.66;64.50;95061.19;4986662;28;20030;-70
2022/01/25 04:05:47;;;;;;;18.52;6.82;;;;;;;-9.74;64.29;95058.59;5004159;28;20109;-70
2022/01/25 04:08:14;;;;;;;9.80;5.28;;;;;;;-9.69;64.60;95061.47;5003897;28;20099;-70
2022/01/25 04:10:40;;;;;;;11.20;4.97;;;;;;;-9.64;64.62;95067.00;5004083;28;20034;-70
2022/01/25 04:13:07;;;;;;;16.17;4.80;;;;;;;-9.69;64.87;95054.56;5003891;28;20026;-69
2022/01/25 04:15:32;;;;;;;15.65;5.85;;;;;;;-9.56;64.17;95050.72;5004139;28;20026;-70
2022/01/25 04:18:18;;;;;;;11.35;5.72;;;;;;;-9.55;63.82;95045.38;5002984;28;20022;-70
2022/01/25 04:20:55;;;;;;;11.05;4.63;;;;;;;-9.50;63.83;95040.53;5003827;28;20050;-70
2022/01/25 04:26:05;;;;;;;10.20;4.32;;;;;;;-9.46;63.02;95037.63;5005018;28;20073;-71
2022/01/25 04:28:30;;;;;;;17.88;6.13;;;;;;;-9.48;62.80;95035.22;5003809;28;20022;-70
2022/01/25 04:30:56;;;;;;;15.02;5.53;;;;;;;-9.49;63.13;95042.16;5003752;28;20037;-69
2022/01/25 04:33:26;;;;;;;14.05;5.20;;;;;;;-9.42;62.60;95026.84;5003636;28;20092;-70
2022/01/25 04:49:34;;;;;;;8.55;4.15;;;;;;;-10.16;64.21;95041.38;5003671;28;20105;-70
2022/01/25 04:52:13;;;;;;;16.48;5.78;;;;;;;-10.24;64.53;95044.72;5003453;28;20026;-70
2022/01/25 05:02:17;;;;;;;18.92;6.68;;;;;;;-11.06;67.66;95040.97;5003442;28;20029;-71
2022/01/25 05:04:49;;;;;;;20.80;9.27;;;;;;;-11.03;67.65;95045.81;5003429;28;20030;-70
2022/01/25 05:10:01;;;;;;;20.00;7.35;;;;;;;-11.47;68.20;95049.19;5003379;28;20120;-70
2022/01/25 05:15:17;;;;;;;26.45;11.48;;;;;;;-11.72;69.45;95066.97;5003337;28;20077;-70
2022/01/25 05:17:45;;;;;;;30.15;10.80;;;;;;;-11.94;70.07;95057.97;5002842;28;20311;-69
2022/01/25 05:22:55;;;;;;;23.65;6.93;;;;;;;-12.12;71.46;95044.28;5003034;28;20287;-69
2022/01/25 05:25:20;;;;;;;19.23;9.40;;;;;;;-12.16;71.52;95045.50;5002941;28;20026;-69
2022/01/25 05:27:45;;;;;;;20.30;8.35;;;;;;;-12.24;72.03;95046.22;5002839;28;20030;-70
2022/01/25 05:30:11;;;;;;;15.60;7.72;;;;;;;-12.27;72.40;95045.69;5006575;28;20030;-70
2022/01/25 05:32:37;;;;;;;27.80;8.70;;;;;;;-12.29;72.13;95042.47;5007060;28;20026;-70
2022/01/25 05:35:04;;;;;;;22.42;9.63;;;;;;;-12.26;71.91;95043.00;5007078;28;20030;-70
2022/01/25 05:37:32;;;;;;;25.58;10.43;;;;;;;-12.16;72.09;95037.81;5006473;28;20033;-70
2022/01/25 05:39:59;;;;;;;38.78;12.15;;;;;;;-12.15;71.58;95029.13;5006762;28;20037;-70
2022/01/25 05:47:24;;;;;;;23.00;8.40;;;;;;;-12.16;70.85;95012.09;5006516;28;20108;-70
2022/01/25 05:49:49;;;;;;;20.88;8.20;;;;;;;-12.13;71.21;95007.47;5006864;28;20268;-69
2022/01/25 05:52:15;;;;;;;14.18;7.18;;;;;;;-12.13;71.41;95006.66;5006536;28;20026;-70
2022/01/25 05:54:40;;;;;;;9.43;5.03;;;;;;;-12.12;71.22;95003.16;4989082;28;20018;-70
2022/01/25 05:57:06;;;;;;;11.30;6.10;;;;;;;-12.10;71.23;95015.84;5006396;28;20101;-70
2022/01/25 05:59:32;;;;;;;10.55;5.57;;;;;;;-12.07;71.38;95023.25;5006517;28;20018;-70
2022/01/25 06:01:58;;;;;;;26.35;9.80;;;;;;;-12.07;71.54;95030.97;5006296;28;20021;-71
2022/01/25 06:04:24;;;;;;;15.82;8.85;;;;;;;-12.02;71.76;95028.78;5006557;28;20028;-71
2022/01/25 06:06:51;;;;;;;14.52;7.03;;;;;;;-11.98;71.06;95036.06;4988990;28;20038;-70
2022/01/25 06:09:17;;;;;;;17.50;8.25;;;;;;;-11.92;71.29;95044.97;5006122;28;20115;-70
2022/01/25 06:11:43;;;;;;;19.40;8.68;;;;;;;-11.87;70.86;95040.16;5006008;28;20022;-70
2022/01/25 06:14:09;;;;;;;23.60;10.02;;;;;;;-11.83;70.85;95033.75;5006103;28;20025;-70
2022/01/25 06:16:34;;;;;;;26.63;9.88;;;;;;;-11.78;70.85;95043.63;5006080;28;20026;-69
2022/01/25 06:19:00;;;;;;;22.40;10.52;;;;;;;-11.76;70.49;95039.13;5006232;28;20030;-69
2022/01/25 06:21:27;;;;;;;25.90;9.68;;;;;;;-11.68;70.25;95036.63;5006063;28;20030;-70
2022/01/25 06:23:52;;;;;;;32.00;11.63;;;;;;;-11.62;69.59;95025.75;5005922;28;20023;-69
2022/01/25 06:26:18;;;;;;;22.77;9.05;;;;;;;-11.61;68.84;95027.34;5005925;28;20022;-69
2022/01/25 06:28:44;;;;;;;30.23;11.73;;;;;;;-11.52;68.81;95026.47;5006096;28;20030;-69
2022/01/25 06:31:09;;;;;;;28.58;11.50;;;;;;;-11.46;69.16;95029.41;5005993;28;20090;-69
2022/01/25 06:33:37;;;;;;;28.95;12.20;;;;;;;-11.32;68.80;95034.81;5005811;28;20026;-70
2022/01/25 06:36:03;;;;;;;29.30;9.73;;;;;;;-11.29;68.09;95026.00;5005782;28;20065;-70
2022/01/25 06:38:29;;;;;;;20.55;7.88;;;;;;;-11.20;68.09;95030.25;5005633;28;20080;-70
2022/01/25 06:40:54;;;;;;;26.23;10.38;;;;;;;-11.21;67.10;95033.78;5004565;28;20049;-69
2022/01/25 06:43:20;;;;;;;23.65;11.05;;;;;;;-11.08;67.45;95033.38;5005662;28;20034;-69
2022/01/25 06:45:54;;;;;;;28.10;11.05;;;;;;;-11.06;67.52;95041.78;5005522;28;20048;-70
2022/01/25 06:48:20;;;;;;;26.13;10.93;;;;;;;-11.01;67.13;95044.72;5005469;28;20050;-71
2022/01/25 06:50:45;;;;;;;26.92;10.23;;;;;;;-10.98;67.13;95026.38;5005490;28;20252;-69
2022/01/25 06:53:10;;;;;;;27.70;11.05;;;;;;;-10.99;66.92;95018.78;5005493;28;20270;-70
2022/01/25 06:55:36;;;;;;;19.23;8.30;;;;;;;-10.82;66.34;95022.28;5004451;28;20073;-70
2022/01/25 06:58:01;;;;;;;13.07;7.30;;;;;;;-10.70;65.39;95021.06;5005276;28;20205;-70
2022/01/25 07:00:27;;;;;;;25.05;9.25;;;;;;;-10.64;65.29;95004.16;5005109;28;20049;-70
2022/01/25 07:02:52;;;;;;;19.63;9.88;;;;;;;-10.58;65.58;95011.25;5005361;28;20037;-70
2022/01/25 07:05:18;;;;;;;22.73;8.45;;;;;;;-10.50;65.11;95012.13;5005533;28;20205;-71
2022/01/25 07:07:44;;;;;;;11.35;5.22;;;;;;;-10.43;65.19;95016.66;4987799;28;20252;-71
2022/01/25 07:10:10;;;;;;;17.35;6.35;;;;;;;-10.40;65.29;95026.66;5005091;28;20041;-71
2022/01/25 07:12:35;;;;;;;15.15;7.00;;;;;;;-10.39;65.42;95010.22;5005164;28;20224;-72
2022/01/25 07:15:01;;;;;;;31.63;10.35;;;;;;;-10.43;65.90;95020.03;5005095;28;20030;-71
2022/01/25 07:17:26;;;;;;;20.77;7.78;;;;;;;-10.43;65.68;95030.34;5004882;28;20044;-69
2022/01/25 07:19:52;;;;;;;12.85;6.65;;;;;;;-10.35;65.38;95017.50;5004819;28;20037;-69
2022/01/25 07:22:17;;;;;;;22.88;8.80;;;;;;;-10.35;64.62;95012.34;5004970;28;20320;-70
2022/01/25 07:24:43;;;;;;;20.40;8.50;;;;;;;-10.22;65.22;95008.47;5004814;28;20037;-71
2022/01/25 07:27:09;;;;;;;21.20;10.07;;;;;;;-10.11;64.18;95000.47;5004920;28;20038;-71
2022/01/25 07:29:34;;;;;;;22.02;8.75;;;;;;;-9.95;64.75;94995.34;5005154;28;20033;-70
2022/01/25 07:32:00;;;;;;;19.85;8.38;;;;;;;-9.97;63.48;95012.75;5004695;28;20033;-71
2022/01/25 07:34:26;;;;;;;24.40;8.65;;;;;;;-9.85;63.95;95004.69;5004780;28;20320;-70
2022/01/25 07:36:52;;;;;;;24.05;8.85;;;;;;;-9.89;64.15;94999.88;5004493;28;20026;-71
2022/01/25 07:39:18;;;;;;;10.88;5.38;;;;;;;-9.80;63.48;94998.09;5004598;28;20098;-69
2022/01/25 07:41:45;;;;;;;12.82;5.05;;;;;;;-9.81;62.96;95003.41;5004688;28;20022;-71
2022/01/25 07:44:10;;;;;;;14.70;6.57;;;;;;;-9.84;63.09;95011.47;5004508;28;20060;-71
2022/01/25 07:46:36;;;;;;;13.70;6.60;;;;;;;-9.76;62.78;94998.59;5004578;28;20018;-71
2022/01/25 07:49:02;;;;;;;18.60;8.38;;;;;;;-9.62;62.41;95005.69;5004113;28;20101;-71
2022/01/25 07:51:28;;;;;;;16.90;6.68;;;;;;;-9.66;62.70;95001.03;5004033;28;20077;-70
2022/01/25 07:53:54;;;;;;;9.27;4.90;;;;;;;-9.54;62.15;95012.63;5004117;28;20252;-72
2022/01/25 07:56:20;;;;;;;20.73;8.43;;;;;;;-9.57;62.31;95012.94;5004267;28;20037;-72
2022/01/25 07:58:46;;;;;;;23.15;8.95;;;;;;;-9.49;62.50;95006.00;5004508;28;20093;-74
2022/01/25 08:01:12;;;;;;;23.23;7.95;;;;;;;-9.47;62.00;95011.00;5004498;28;20033;-74
2022/01/25 08:03:38;;;;;;;16.70;6.75;;;;;;;-9.43;62.44;95007.16;5006270;28;20022;-75
2022/01/25 08:06:03;;;;;;;21.63;6.90;;;;;;;-9.54;61.81;95013.44;5005215;28;20053;-75
2022/01/25 08:08:29;;;;;;;16.63;7.05;;;;;;;-9.49;62.37;95020.69;5004875;28;20030;-73
2022/01/25 08:10:54;;;;;;;11.57;6.22;;;;;;;-9.52;62.51;95006.34;5004820;28;20148;-74
2022/01/25 08:13:20;;;;;;;25.05;5.80;;;;;;;-9.56;62.42;95020.53;5004553;28;20026;-75
2022/01/25 08:15:45;;;;;;;19.85;7.32;;;;;;;-9.55;62.62;95019.56;5005217;28;20022;-74
2022/01/25 08:18:11;;;;;;;17.98;7.55;;;;;;;-9.52;62.49;94997.81;5004634;28;20029;-73
2022/01/25 08:20:36;;;;;;;26.55;9.85;;;;;;;-9.45;62.65;95010.88;5005078;28;20089;-73
2022/01/25 08:23:01;;;;;;;14.93;6.13;;;;;;;-9.41;62.08;94996.66;5004343;28;20316;-71
2022/01/25 08:25:27;;;;;;;31.13;7.85;;;;;;;-9.36;61.57;94995.22;5004846;28;20030;-74
2022/01/25 08:27:52;;;;;;;21.73;7.82;;;;;;;-9.33;61.87;94992.28;5004573;28;20053;-74
2022/01/25 08:30:18;;;;;;;25.33;10.10;;;;;;;-9.32;61.83;94991.34;5004338;28;20033;-74
2022/01/25 08:32:44;;;;;;;24.10;6.95;;;;;;;-9.22;62.18;95004.06;4986866;28;20038;-73
2022/01/25 08:35:10;;;;;;;17.92;5.88;;;;;;;-9.25;61.04;95003.59;4986473;28;20030;-75
2022/01/25 08:37:36;;;;;;;25.65;9.82;;;;;;;-9.23;61.39;94997.28;5003292;28;20053;-74
2022/01/25 08:40:05;;;;;;;30.30;9.77;;;;;;;-9.17;61.74;94988.91;5003756;28;20026;-73
2022/01/25 08:42:30;;;;;;;25.13;8.02;;;;;;;-9.04;61.50;94980.63;5003398;28;20319;-74
2022/01/25 08:44:56;;;;;;;21.77;8.52;;;;;;;-8.99;61.03;94975.78;5003500;28;20029;-74
2022/01/25 08:47:21;;;;;;;28.33;10.40;;;;;;;-8.87;60.87;94978.84;5003339;28;20050;-75
2022/01/25 08:49:47;;;;;;;31.10;11.27;;;;;;;-8.74;59.64;94976.53;5003814;28;20032;-75
2022/01/25 08:52:12;;;;;;;14.52;6.35;;;;;;;-8.64;59.62;94978.91;5003208;28;20034;-74
2022/01/25 08:54:38;;;;;;;26.95;9.52;;;;;;;-8.68;58.86;94973.28;5003713;28;20038;-75
2022/01/25 08:57:04;;;;;;;31.65;10.35;;;;;;;-8.61;59.25;94973.41;5003322;28;20027;-74
2022/01/25 08:59:29;;;;;;;24.45;9.05;;;;;;;-8.53;58.94;94964.81;5003231;28;20037;-74
2022/01/25 09:01:55;;;;;;;26.60;7.40;;;;;;;-8.42;58.39;94976.59;5003444;28;20257;-74
2022/01/25 09:04:20;;;;;;;19.70;8.38;;;;;;;-8.39;57.67;94979.59;5002820;28;20022;-75
2022/01/25 09:06:46;;;;;;;22.75;8.15;;;;;;;-8.37;59.12;94974.25;5003345;28;20094;-73
2022/01/25 09:09:13;;;;;;;24.35;8.30;;;;;;;-8.34;57.49;94971.34;5003190;28;20021;-75
2022/01/25 09:11:40;;;;;;;21.13;9.00;;;;;;;-8.30;58.29;94972.63;5003323;28;20260;-76
2022/01/25 09:14:07;;;;;;;16.70;8.15;;;;;;;-8.20;58.10;94964.63;4986096;28;20201;-74
2022/01/25 09:16:33;;;;;;;19.67;9.10;;;;;;;-8.19;58.04;94945.56;5003159;28;20033;-73
2022/01/25 09:18:59;;;;;;;26.60;9.95;;;;;;;-8.08;58.50;94945.16;5003071;28;20335;-74
2022/01/25 09:21:25;;;;;;;26.50;11.18;;;;;;;-8.04;58.07;94943.84;5003053;28;20025;-75
2022/01/25 09:23:51;;;;;;;19.55;6.88;;;;;;;-8.04;57.19;94943.84;5003217;28;20014;-72
2022/01/25 09:26:17;;;;;;;23.55;6.65;;;;;;;-8.04;56.96;94945.63;5003101;28;20092;-73
2022/01/25 09:28:42;;;;;;;24.23;9.50;;;;;;;-7.99;56.27;94941.56;5002820;28;20038;-74
2022/01/25 09:31:08;;;;;;;24.38;9.77;;;;;;;-7.96;56.39;94951.56;5003295;28;20081;-73
2022/01/25 09:33:33;;;;;;;28.63;8.02;;;;;;;-8.00;56.27;94949.47;5002993;28;20308;-73
2022/01/25 09:35:59;;;;;;;24.90;9.60;;;;;;;-7.96;57.55;94946.38;5002743;28;20050;-73
2022/01/25 09:38:25;;;;;;;18.48;7.30;;;;;;;-7.97;57.13;94933.63;5002789;28;20040;-74
2022/01/25 09:40:51;;;;;;;21.20;7.85;;;;;;;-7.92;57.53;94939.88;5002884;28;20030;-73
2022/01/25 09:43:17;;;;;;;30.52;9.65;;;;;;;-7.91;57.52;94944.09;5002820;28;20030;-73
2022/01/25 09:45:43;;;;;;;26.70;11.27;;;;;;;-7.87;57.69;94947.16;5002752;28;20026;-72
2022/01/25 09:48:10;;;;;;;26.10;10.68;;;;;;;-7.93;57.16;94956.41;4985137;28;20090;-72
2022/01/25 09:50:37;;;;;;;15.98;6.35;;;;;;;-7.99;57.13;94928.63;5003049;28;20042;-72
2022/01/25 09:53:06;;;;;;;25.23;9.52;;;;;;;-7.99;58.28;94933.78;5002882;28;20335;-72
2022/01/25 09:55:36;;;;;;;20.65;8.18;;;;;;;-7.96;56.97;94935.22;5002541;28;20259;-72
2022/01/25 09:58:03;;;;;;;18.38;6.47;;;;;;;-7.97;57.50;94923.28;5002650;28;20034;-72
2022/01/25 10:00:31;;;;;;;28.35;7.82;;;;;;;-7.99;57.50;94914.88;5002896;28;20042;-72
2022/01/25 10:03:17;;;;;;;17.05;8.25;;;;;;;-8.08;57.45;94917.53;5002499;28;20030;-74
2022/01/25 10:05:45;;;;;;;20.00;7.30;;;;;;;-8.05;57.58;94915.56;5002599;28;20102;-73
2022/01/25 10:08:21;;;;;;;13.93;6.25;;;;;;;-7.98;57.42;94922.44;5002941;28;20018;-73
2022/01/25 10:10:55;;;;;;;22.35;8.98;;;;;;;-7.94;58.39;94903.00;5002525;28;20030;-76
2022/01/25 10:13:21;;;;;;;18.42;8.30;;;;;;;-7.89;58.37;94915.47;4985110;28;20022;-75
2022/01/25 10:15:49;;;;;;;21.35;6.97;;;;;;;-7.76;58.08;94917.47;5005430;28;20076;-75
2022/01/25 10:18:15;;;;;;;11.13;6.15;;;;;;;-7.88;57.42;94912.72;5006323;28;20271;-77
2022/01/25 10:20:46;;;;;;;19.85;7.63;;;;;;;-7.82;58.28;94894.84;5006352;28;20049;-75
2022/01/25 10:23:30;;;;;;;24.35;8.90;;;;;;;-7.77;58.87;94887.38;5006313;28;20019;-72
2022/01/25 10:25:56;;;;;;;28.38;10.32;;;;;;;-7.77;58.76;94882.22;5006024;28;20038;-74
2022/01/25 10:28:26;;;;;;;20.67;9.63;;;;;;;-7.63;58.48;94889.22;5006119;28;20304;-74
2022/01/25 10:30:57;;;;;;;28.63;9.93;;;;;;;-7.59;58.15;94890.47;5005794;28;20030;-75
2022/01/25 10:33:42;;;;;;;34.47;11.07;;;;;;;-7.52;59.24;94891.34;5005780;28;20022;-72
2022/01/25 10:36:22;;;;;;;25.85;10.15;;;;;;;-7.43;58.40;94889.50;5005884;28;20033;-71
2022/01/25 10:38:50;;;;;;;31.10;9.43;;;;;;;-7.30;59.14;94881.13;5005709;28;20033;-72
2022/01/25 10:41:34;;;;;;;22.48;7.43;;;;;;;-7.20;58.27;94880.88;5005709;28;20305;-72
2022/01/25 10:44:00;;;;;;;21.55;8.32;;;;;;;-7.20;57.04;94883.47;5005595;28;20037;-72
2022/01/25 10:46:31;;;;;;;22.70;9.50;;;;;;;-7.28;57.90;94866.22;5005576;28;20018;-72
2022/01/25 10:49:12;;;;;;;23.27;9.43;;;;;;;-7.33;57.53;94873.69;5005370;28;20108;-72
2022/01/25 10:51:46;;;;;;;18.95;9.40;;;;;;;-7.38;57.59;94868.25;5005659;28;20030;-71
2022/01/25 10:54:13;;;;;;;21.77;8.05;;;;;;;-7.33;58.06;94873.69;5005583;28;20022;-71
2022/01/25 10:56:46;;;;;;;21.40;9.68;;;;;;;-7.37;58.56;94872.44;5005342;28;20038;-72
2022/01/25 10:59:30;;;;;;;33.13;10.18;;;;;;;-7.33;58.83;94865.94;5005148;28;20018;-71
2022/01/25 11:01:59;;;;;;;31.75;9.55;;;;;;;-7.25;58.84;94860.66;5005415;28;20038;-71
2022/01/25 11:04:31;;;;;;;26.48;9.32;;;;;;;-7.17;58.68;94857.97;5005067;28;20030;-72
2022/01/25 11:07:01;;;;;;;28.95;11.18;;;;;;;-7.18;58.22;94846.03;5004835;28;20202;-73
2022/01/25 11:09:35;;;;;;;26.38;10.65;;;;;;;-7.11;58.89;94852.09;5005088;28;20084;-72
2022/01/25 11:12:01;;;;;;;22.77;9.07;;;;;;;-7.06;59.17;94844.59;5006231;28;20018;-71
2022/01/25 11:17:11;;;;;;;33.00;13.30;;;;;;;-6.92;59.31;94850.75;5006772;28;20108;-72
2022/01/25 11:19:37;;;;;;;28.13;10.57;;;;;;;-6.81;57.60;94833.94;5005096;28;20018;-73
2022/01/25 11:22:02;;;;;;;24.58;10.45;;;;;;;-6.68;58.20;94843.63;5004645;28;20018;-72
2022/01/25 11:24:31;;;;;;;28.30;9.52;;;;;;;-6.67;58.06;94838.28;5004621;28;20330;-75
2022/01/25 11:27:01;;;;;;;29.67;11.85;;;;;;;-6.70;58.82;94833.44;5004193;28;20053;-74
2022/01/25 11:29:27;;;;;;;13.60;6.43;;;;;;;-6.79;57.39;94834.56;5004842;28;20026;-76
2022/01/25 11:32:04;;;;;;;21.73;9.63;;;;;;;-6.85;58.48;94817.13;5004773;28;20260;-75
2022/01/25 11:34:33;;;;;;;19.85;9.13;;;;;;;-6.80;58.68;94819.97;5004778;28;20076;-75
2022/01/25 11:37:04;;;;;;;27.65;11.18;;;;;;;-6.87;59.11;94811.31;5004713;28;20037;-75
2022/01/25 11:39:31;;;;;;;;;;;;;;;-6.82;58.39;94814.16;5004918;28;20295;-76
2022/01/25 11:42:02;;;;;;;27.38;11.43;;;;;;;-6.89;58.99;94819.28;5004640;28;19913;-74
2022/01/25 11:44:29;;;;;;;;;;;;;;;-6.84;58.51;94804.97;5004988;28;20026;-75
2022/01/25 11:46:57;;;;;;;25.25;9.65;;;;;;;-6.88;58.77;94797.56;5004429;28;19906;-74
2022/01/25 11:49:23;;;;;;;27.10;11.43;;;;;;;-6.79;59.13;94803.44;5004264;28;20092;-76
2022/01/25 11:52:04;;;;;;;30.13;12.07;;;;;;;-6.65;59.19;94783.66;5004195;28;20223;-74
2022/01/25 11:54:30;;;;;;;24.35;10.55;;;;;;;-6.64;57.82;94794.81;5004317;28;20034;-76
2022/01/25 11:57:09;;;;;;;27.13;9.95;;;;;;;-6.63;58.00;94784.28;5002952;28;20053;-76
2022/01/25 11:59:35;;;;;;;19.90;7.65;;;;;;;-6.54;58.30;94780.56;5004541;28;20093;-74
2022/01/25 12:02:01;;;;;;;14.07;6.38;;;;;;;-6.46;57.68;94787.41;5003059;28;20030;-73
2022/01/25 12:04:29;;;;;;;29.83;10.93;;;;;;;-6.47;58.01;94786.63;5003549;28;20387;-77
2022/01/25 12:07:01;;;;;;;25.70;9.82;;;;;;;-6.44;57.45;94782.06;5002702;28;20308;-75
2022/01/25 12:09:45;;;;;;;29.27;11.55;;;;;;;-6.33;57.75;94771.16;5003765;28;20338;-73
2022/01/25 12:12:13;;;;;;;23.83;10.50;;;;;;;-6.28;57.62;94777.41;5003735;28;20026;-72
2022/01/25 12:14:51;;;;;;;29.80;11.75;;;;;;;-6.27;56.91;94771.25;5003820;28;20034;-73
2022/01/25 12:17:23;;;;;;;26.60;11.65;;;;;;;-6.22;57.82;94772.47;5003569;28;20030;-74
2022/01/25 12:19:51;;;;;;;;;;;;;;;-6.21;56.59;94766.28;5004048;28;20033;-74
2022/01/25 12:25:26;;;;;;;24.35;10.95;;;;;;;-6.15;57.53;94757.75;5003481;28;20228;-74
2022/01/25 12:28:08;;;;;;;27.60;11.77;;;;;;;-6.07;56.51;94755.81;5003647;28;20030;-75
2022/01/25 12:30:39;;;;;;;26.17;10.57;;;;;;;-5.96;57.24;94756.28;5003552;28;20029;-73
2022/01/25 12:33:09;;;;;;;25.33;11.52;;;;;;;-5.90;56.22;94761.53;5003534;28;20026;-74
2022/01/25 12:35:42;;;;;;;31.52;10.45;;;;;;;-5.75;56.38;94765.81;5003514;28;20107;-75
2022/01/25 12:38:13;;;;;;;26.33;11.23;;;;;;;-5.78;56.33;94758.41;5002676;28;20097;-74
2022/01/25 12:41:04;;;;;;;26.67;11.05;;;;;;;-5.72;56.11;94744.66;5003631;28;20022;-75
2022/01/25 12:44:01;;;;;;;29.85;11.18;;;;;;;-5.60;55.82;94756.13;5003257;28;20097;-75
2022/01/25 12:46:40;;;;;;;21.38;9.07;;;;;;;-5.55;55.24;94745.16;4986315;28;20037;-74
2022/01/25 12:49:15;;;;;;;27.30;10.68;;;;;;;-5.60;55.14;94737.94;5003387;28;20038;-75
2022/01/25 12:51:42;;;;;;;27.52;10.32;;;;;;;-5.61;55.54;94735.53;5003076;28;20068;-74
2022/01/25 12:54:11;;;;;;;25.45;9.77;;;;;;;-5.61;55.62;94735.53;5003264;28;20026;-74
2022/01/25 12:56:43;;;;;;;24.02;10.65;;;;;;;-5.52;55.21;94729.19;5003151;28;20042;-74
2022/01/25 12:59:12;;;;;;;32.30;10.55;;;;;;;-5.39;55.02;94731.88;5003253;28;20032;-73
2022/01/25 13:01:40;;;;;;;26.83;11.10;;;;;;;-5.35;54.40;94719.28;5003307;28;20070;-73
2022/01/25 13:04:08;;;;;;;22.00;9.57;;;;;;;-5.38;54.25;94722.28;5003004;28;20018;-74
2022/01/25 13:06:38;;;;;;;28.02;9.73;;;;;;;-5.36;54.74;94712.47;5002590;28;20021;-75
2022/01/25 13:09:18;;;;;;;23.40;10.85;;;;;;;-5.32;54.55;94718.91;5002569;28;20363;-74
2022/01/25 13:17:03;;;;;;;34.42;10.95;;;;;;;-5.18;54.26;94711.97;5002842;28;20142;-73
2022/01/25 13:19:38;;;;;;;31.08;11.05;;;;;;;-5.17;54.18;94709.19;5003033;28;20232;-73
2022/01/25 13:22:09;;;;;;;31.88;12.45;;;;;;;-5.16;53.85;94710.75;5002953;28;20030;-74
2022/01/25 13:24:45;;;;;;;25.60;10.65;;;;;;;-5.11;54.24;94703.19;5002860;28;20034;-74